Heckscherville, Pennsylvania
Current Conditions -  °F | °C
As of 12:06 AM on Tuesday 23 Dec 2014 (Local Time) from KMUI Reporting Station
Overcast Overcast  
Wind Chill: 37°   Ceiling: 800
Heat Index: 37°   Visibility: 10mi
Dew Point: 37°   Wind: 2mph
Humidity: 100%   Direction: 60°ENE
Pressure: 30.11"   Gusts: NA
Location:  40.6882°N, 76.264°W
Report Text: KMUI 230506Z AUTO 06002KT 10SM OVC008 03/03 A3011 RMK AO2
Loading
Personal Weather Stations






























Interactive Weather Map New forecast layout! Learn more

10-Day Weather Forecast

Advertisements
Track Severe Weather on mobile